Decatur Airport
KDEC : now visible

Airfield :











YOU CAN JOIN US ON...

 
LOGIN :

Register | Disclaimer

   EN    FR    IT 

 









Legend :    VFR   Marginal VFR   IFR   Intensive IFR   Very Intensive IFR
Visi :
Ceiling :
>= 8 km
>= 3000ft
5 to 8 km
1000 to 3000 ft
1500m to 5 km
500 to 1000 ft
800 to 1500m
200 to 500 ft
< 800m
< 200 ft
Symbols :   Thunderstorms  Fog  Heavy snow  Heavy precipitations  Wind > 20 kt







- Airport Elevation : 682 ft
- IATA code : DEC


KDEC - Decatur

CURRENT METAR :
  • 181954Z 21016KT 10SM CLR 32/24 A2987 RMK AO2 SLP107 T03220239

EXPIRED METARs :
  • 181854Z 22013KT 10SM CLR 32/24 A2990 RMK AO2 SLP118 T03170239
  • 181754Z 21009KT 10SM CLR 31/24 A2993 RMK AO2 SLP127 T03110239 10311 20228 58003

TAF KDEC
Valid from the 18 at 18:00 until the 19 at 18:00 UTC


181743Z 1818/1918 22010KT P6SM SCT070
FM190100 20008KT P6SM SKC
FM191200 22008KT P6SM SKC
KZKC FIR / North America



MET'MAP, your aeronautical weather chart ! - Copyright ORBIFLY December 2007 - Disclaimer

ORBIFLY MET'MAP TEAM :

Programming & Development : Alexandra Zaïnal
Concept & Development : Baudouin d'Aumeries
Co-Development & Prog : Marc-Olivier Méhu
Technical & hardware support : Manuel Goepfert

Contact : metmap@orbifly.com




SOURCES & CREDITS :

   NOAA       Earth
Advisory